Time;durP1;ratioP1;P1;durP2;ratioP2;P2;SDS_P1;SDS_P2;PMS_P1;PMS_P2;Temp;Humidity;BMP_temperature;BMP_pressure;BME280_temperature;BME280_humidity;BME280_pressure;Samples;Min_cycle;Max_cycle;Signal;HPM_P1;HPM_P2
2023/04/27 00:01:20;;;;;;;10.65;3.72;;;8.20;99.90;;;;;;5026660;28;20025;-64
2023/04/27 00:03:46;;;;;;;7.97;3.65;;;8.20;99.90;;;;;;5024788;28;20059;-64
2023/04/27 00:06:11;;;;;;;6.30;3.42;;;8.10;99.90;;;;;;5028432;28;20029;-62
2023/04/27 00:08:37;;;;;;;7.65;4.13;;;7.90;99.90;;;;;;5024172;28;20401;-64
2023/04/27 00:11:03;;;;;;;7.68;3.50;;;7.80;99.90;;;;;;5026431;28;20037;-65
2023/04/27 00:13:28;;;;;;;11.90;3.50;;;7.80;99.90;;;;;;5022702;28;20904;-63
2023/04/27 00:15:54;;;;;;;7.95;3.33;;;7.60;99.90;;;;;;5022193;28;20460;-64
2023/04/27 00:18:20;;;;;;;15.90;4.25;;;7.60;99.90;;;;;;5024168;28;20232;-66
2023/04/27 00:20:45;;;;;;;8.88;3.58;;;7.60;99.90;;;;;;5023817;28;20032;-64
2023/04/27 00:23:11;;;;;;;5.82;3.35;;;7.50;99.90;;;;;;5024146;28;20076;-65
2023/04/27 00:25:36;;;;;;;18.85;4.10;;;7.40;99.90;;;;;;5021939;28;20416;-64
2023/04/27 00:28:02;;;;;;;12.18;3.78;;;7.40;99.90;;;;;;5027271;28;20377;-67
2023/04/27 00:30:28;;;;;;;6.80;4.13;;;7.40;99.90;;;;;;5026301;28;20052;-65
2023/04/27 00:32:53;;;;;;;12.75;4.03;;;7.30;99.90;;;;;;5023756;28;20044;-66
2023/04/27 00:35:19;;;;;;;14.48;4.03;;;7.30;99.90;;;;;;5024122;28;20175;-64
2023/04/27 00:37:45;;;;;;;6.65;3.67;;;7.30;99.90;;;;;;5034666;28;20500;-64
2023/04/27 00:40:10;;;;;;;8.52;3.42;;;7.20;99.90;;;;;;5023139;28;22138;-62
2023/04/27 00:42:36;;;;;;;14.48;4.57;;;7.20;99.90;;;;;;5021744;28;20045;-63
2023/04/27 00:45:03;;;;;;;14.40;4.65;;;7.20;99.90;;;;;;5022349;28;20032;-65
2023/04/27 00:47:29;;;;;;;12.40;3.40;;;7.20;99.90;;;;;;5024702;28;20029;-65
2023/04/27 00:49:55;;;;;;;13.23;4.25;;;7.20;99.90;;;;;;5021630;28;20370;-64
2023/04/27 00:52:21;;;;;;;13.55;3.90;;;7.20;99.90;;;;;;5022206;28;20039;-64
2023/04/27 00:54:50;;;;;;;12.35;4.35;;;7.20;99.90;;;;;;5024093;28;20057;-64
2023/04/27 00:57:15;;;;;;;18.10;4.63;;;7.30;99.90;;;;;;5028441;28;20097;-66
2023/04/27 00:59:41;;;;;;;9.05;3.78;;;7.30;99.90;;;;;;5028330;28;20477;-65
2023/04/27 01:02:07;;;;;;;7.93;3.60;;;7.40;99.90;;;;;;5027075;28;20034;-64
2023/04/27 01:04:32;;;;;;;22.40;4.97;;;7.50;99.90;;;;;;5030315;28;20505;-65
2023/04/27 01:06:58;;;;;;;11.88;4.68;;;7.50;99.90;;;;;;5029398;28;20544;-65
2023/04/27 01:09:24;;;;;;;15.80;6.45;;;7.50;99.90;;;;;;5029922;28;20022;-64
2023/04/27 01:11:49;;;;;;;14.23;4.10;;;7.60;99.90;;;;;;5026761;28;20022;-64
2023/04/27 01:14:16;;;;;;;10.18;3.50;;;7.60;99.90;;;;;;5029910;28;20049;-64
2023/04/27 01:16:41;;;;;;;7.85;4.28;;;7.60;99.90;;;;;;5029187;28;20021;-64
2023/04/27 01:19:08;;;;;;;7.63;3.70;;;7.60;99.90;;;;;;5030080;28;20032;-64
2023/04/27 01:21:33;;;;;;;7.30;4.15;;;7.60;99.90;;;;;;5033353;28;20075;-63
2023/04/27 01:23:59;;;;;;;17.08;4.18;;;7.60;99.90;;;;;;5032275;28;20030;-66
2023/04/27 01:26:24;;;;;;;13.57;3.33;;;7.60;99.90;;;;;;5028020;28;20497;-66
2023/04/27 01:28:50;;;;;;;13.02;3.72;;;7.70;99.90;;;;;;5026570;28;20033;-63
2023/04/27 01:31:15;;;;;;;10.13;4.10;;;7.70;99.90;;;;;;5025317;28;20037;-67
2023/04/27 01:33:41;;;;;;;18.17;4.38;;;7.60;99.90;;;;;;5027868;28;20017;-66
2023/04/27 01:36:08;;;;;;;14.70;4.53;;;7.50;99.90;;;;;;5026088;28;20026;-66
2023/04/27 01:38:34;;;;;;;10.98;4.13;;;7.40;99.90;;;;;;5025755;28;20036;-66
2023/04/27 01:41:00;;;;;;;10.30;4.13;;;7.50;99.90;;;;;;5025823;28;20025;-66
2023/04/27 01:43:27;;;;;;;18.38;4.30;;;7.50;99.90;;;;;;5026399;28;20052;-65
2023/04/27 01:45:52;;;;;;;8.88;3.95;;;7.50;99.90;;;;;;5024869;28;20042;-64
2023/04/27 01:48:18;;;;;;;7.90;4.10;;;7.50;99.90;;;;;;5027147;28;20033;-65
2023/04/27 01:50:44;;;;;;;10.23;4.50;;;7.50;99.90;;;;;;5027598;28;20040;-67
2023/04/27 01:53:09;;;;;;;10.82;4.10;;;7.50;99.90;;;;;;5024642;28;20160;-65
2023/04/27 01:55:35;;;;;;;12.38;5.15;;;7.50;99.90;;;;;;5026076;28;20592;-66
2023/04/27 01:58:00;;;;;;;6.70;4.15;;;7.60;99.90;;;;;;5025276;28;20026;-66
2023/04/27 02:00:26;;;;;;;11.57;4.18;;;7.70;99.90;;;;;;5024157;28;20127;-65
2023/04/27 02:02:56;;;;;;;13.82;5.00;;;7.70;99.90;;;;;;5028158;28;20088;-64
2023/04/27 02:05:24;;;;;;;11.25;5.43;;;7.80;99.90;;;;;;5027170;28;20025;-65
2023/04/27 02:07:50;;;;;;;11.40;5.22;;;7.80;99.90;;;;;;5024592;28;20408;-65
2023/04/27 02:10:15;;;;;;;14.43;4.75;;;7.80;99.90;;;;;;5024934;28;20021;-65
2023/04/27 02:12:41;;;;;;;12.23;4.80;;;7.80;99.90;;;;;;5025695;28;20022;-66
2023/04/27 02:15:07;;;;;;;11.80;4.70;;;7.80;99.90;;;;;;5023939;28;20497;-66
2023/04/27 02:17:33;;;;;;;11.82;4.90;;;7.70;99.90;;;;;;5025319;28;20054;-65
2023/04/27 02:19:59;;;;;;;15.38;5.30;;;7.70;99.90;;;;;;5025438;28;20523;-65
2023/04/27 02:22:25;;;;;;;10.40;4.10;;;7.80;99.90;;;;;;5025725;28;20029;-63
2023/04/27 02:24:50;;;;;;;13.63;5.03;;;7.80;99.90;;;;;;5025147;28;20040;-65
2023/04/27 02:27:16;;;;;;;14.45;4.97;;;7.80;99.90;;;;;;5028115;28;20038;-65
2023/04/27 02:29:42;;;;;;;13.25;4.50;;;7.70;99.90;;;;;;5032195;28;20057;-64
2023/04/27 02:32:07;;;;;;;9.75;4.85;;;7.70;99.90;;;;;;5024086;28;20033;-65
2023/04/27 02:34:33;;;;;;;10.55;4.07;;;7.70;99.90;;;;;;5025561;28;20076;-65
2023/04/27 02:36:58;;;;;;;19.33;4.50;;;7.60;99.90;;;;;;5027665;28;20042;-63
2023/04/27 02:39:24;;;;;;;12.55;5.60;;;7.60;99.90;;;;;;5030228;28;20037;-64
2023/04/27 02:41:49;;;;;;;15.52;4.30;;;7.70;99.90;;;;;;5028049;28;20029;-64
2023/04/27 02:44:15;;;;;;;10.18;4.10;;;7.60;99.90;;;;;;5029582;28;20117;-65
2023/04/27 02:46:40;;;;;;;13.98;4.65;;;7.60;99.90;;;;;;5023138;28;20017;-64
2023/04/27 02:49:06;;;;;;;11.93;4.38;;;7.60;99.90;;;;;;5023287;28;20042;-65
2023/04/27 02:51:31;;;;;;;15.48;5.57;;;7.40;99.90;;;;;;5026392;28;20029;-63
2023/04/27 02:53:57;;;;;;;21.88;5.57;;;7.40;99.90;;;;;;5024954;28;20041;-65
2023/04/27 02:56:22;;;;;;;13.85;5.15;;;7.30;99.90;;;;;;5032130;28;20022;-66
2023/04/27 02:58:48;;;;;;;8.40;4.90;;;7.20;99.90;;;;;;5031610;28;20026;-66
2023/04/27 03:01:16;;;;;;;16.00;5.30;;;7.10;99.90;;;;;;5031704;28;20034;-65
2023/04/27 03:03:46;;;;;;;22.67;5.85;;;7.10;99.90;;;;;;5030694;28;20037;-66
2023/04/27 03:06:12;;;;;;;8.30;4.40;;;7.10;99.90;;;;;;5030971;28;20087;-65
2023/04/27 03:08:37;;;;;;;9.95;4.75;;;7.10;99.90;;;;;;5030609;28;20041;-66
2023/04/27 03:11:03;;;;;;;10.65;5.43;;;7.00;99.90;;;;;;5030006;28;20029;-65
2023/04/27 03:13:28;;;;;;;10.65;4.03;;;6.90;99.90;;;;;;5043724;28;20029;-66
2023/04/27 03:15:54;;;;;;;11.75;4.95;;;7.00;99.90;;;;;;5045143;28;20031;-66
2023/04/27 03:18:20;;;;;;;16.27;5.32;;;6.90;99.90;;;;;;5033498;28;20115;-65
2023/04/27 03:20:45;;;;;;;12.85;5.35;;;6.90;99.90;;;;;;5030916;28;20116;-66
2023/04/27 03:23:11;;;;;;;13.43;4.80;;;6.90;99.90;;;;;;5031717;28;20389;-65
2023/04/27 03:25:37;;;;;;;14.43;4.78;;;6.90;99.90;;;;;;5030073;28;20041;-64
2023/04/27 03:28:02;;;;;;;12.82;4.53;;;6.90;99.90;;;;;;5028006;28;20041;-64
2023/04/27 03:30:28;;;;;;;12.23;4.45;;;6.90;99.90;;;;;;5021559;28;20800;-66
2023/04/27 03:32:53;;;;;;;9.10;3.95;;;6.90;99.90;;;;;;5029671;28;20029;-66
2023/04/27 03:35:19;;;;;;;8.25;4.25;;;6.90;99.90;;;;;;5029059;28;20053;-64
2023/04/27 03:37:45;;;;;;;17.90;5.47;;;6.80;99.90;;;;;;5026459;28;20068;-64
2023/04/27 03:40:11;;;;;;;13.02;5.10;;;6.80;99.90;;;;;;5024125;28;20029;-66
2023/04/27 03:42:37;;;;;;;11.27;5.22;;;6.70;99.90;;;;;;5023609;28;20501;-66
2023/04/27 03:45:03;;;;;;;13.98;5.75;;;6.70;99.90;;;;;;5023381;28;20037;-67
2023/04/27 03:47:29;;;;;;;14.88;5.47;;;6.50;99.90;;;;;;5027075;28;20519;-66
2023/04/27 03:49:55;;;;;;;16.38;5.38;;;6.40;99.90;;;;;;5022888;28;20037;-65
2023/04/27 03:52:21;;;;;;;16.83;5.90;;;6.30;99.90;;;;;;5019645;28;20053;-66
2023/04/27 03:54:46;;;;;;;16.30;5.40;;;6.30;99.90;;;;;;5025742;28;20029;-65
2023/04/27 03:57:12;;;;;;;12.82;5.40;;;6.20;99.90;;;;;;5023635;28;20029;-65
2023/04/27 03:59:37;;;;;;;11.98;4.85;;;6.10;99.90;;;;;;5032311;28;20040;-66
2023/04/27 04:02:04;;;;;;;15.43;6.00;;;5.90;99.90;;;;;;5030066;28;20032;-65
2023/04/27 04:04:30;;;;;;;14.93;5.88;;;5.80;99.90;;;;;;5030258;28;20025;-65
2023/04/27 04:06:55;;;;;;;14.43;5.35;;;5.60;99.90;;;;;;5028200;28;20078;-64
2023/04/27 04:09:21;;;;;;;17.25;5.78;;;5.40;99.90;;;;;;5023934;28;20029;-65
2023/04/27 04:11:46;;;;;;;15.50;5.88;;;5.20;99.90;;;;;;5021500;28;20116;-64
2023/04/27 04:14:12;;;;;;;13.82;5.80;;;5.10;99.90;;;;;;5024469;28;20079;-66
2023/04/27 04:16:37;;;;;;;21.70;6.35;;;5.00;99.90;;;;;;5028086;28;20013;-65
2023/04/27 04:19:03;;;;;;;24.30;6.68;;;4.90;99.90;;;;;;5020100;28;21499;-65
2023/04/27 04:21:28;;;;;;;13.18;5.88;;;4.90;99.90;;;;;;5024643;28;20029;-65
2023/04/27 04:23:55;;;;;;;16.02;5.30;;;4.90;99.90;;;;;;5022757;28;20804;-66
2023/04/27 04:26:22;;;;;;;14.90;6.20;;;4.80;99.90;;;;;;5023942;28;20036;-65
2023/04/27 04:28:47;;;;;;;16.02;6.05;;;4.80;99.90;;;;;;5033353;28;20384;-66
2023/04/27 04:31:16;;;;;;;20.35;6.05;;;4.80;99.90;;;;;;5028538;28;20033;-65
2023/04/27 04:33:41;;;;;;;19.80;6.30;;;4.70;99.90;;;;;;5022817;28;20047;-62
2023/04/27 04:36:07;;;;;;;17.05;5.93;;;4.70;99.90;;;;;;5023689;28;20042;-66
2023/04/27 04:38:33;;;;;;;14.07;5.22;;;4.70;99.90;;;;;;5025084;28;20554;-64
2023/04/27 04:40:59;;;;;;;20.15;6.78;;;4.60;99.90;;;;;;5025093;28;21185;-64
2023/04/27 04:43:24;;;;;;;15.60;6.68;;;4.60;99.90;;;;;;5024599;28;20137;-65
2023/04/27 04:45:50;;;;;;;14.73;6.03;;;4.40;99.90;;;;;;5023700;28;20026;-66
2023/04/27 04:48:16;;;;;;;21.77;6.50;;;4.40;99.90;;;;;;5017015;28;20497;-65
2023/04/27 04:50:42;;;;;;;20.67;7.05;;;4.50;99.90;;;;;;5023834;28;20384;-63
2023/04/27 04:53:08;;;;;;;22.73;7.25;;;4.40;99.90;;;;;;5023851;28;20029;-63
2023/04/27 04:55:33;;;;;;;17.52;6.47;;;4.40;99.90;;;;;;5026125;28;20033;-59
2023/04/27 04:57:59;;;;;;;18.67;6.57;;;4.40;99.90;;;;;;5030322;28;20041;-57
2023/04/27 05:00:25;;;;;;;21.33;6.22;;;4.40;99.90;;;;;;5024084;28;20113;-58
2023/04/27 05:02:51;;;;;;;15.65;6.25;;;4.40;99.90;;;;;;5026312;28;20053;-60
2023/04/27 05:05:17;;;;;;;20.38;7.18;;;4.40;99.90;;;;;;5026940;28;20519;-60
2023/04/27 05:07:42;;;;;;;19.88;6.88;;;4.40;99.90;;;;;;5025695;28;20131;-58
2023/04/27 05:10:08;;;;;;;16.40;6.40;;;4.50;99.90;;;;;;5028649;28;20044;-58
2023/04/27 05:12:34;;;;;;;21.95;7.20;;;4.50;99.90;;;;;;5028024;28;20034;-59
2023/04/27 05:14:59;;;;;;;20.35;7.03;;;4.50;99.90;;;;;;5032474;28;20044;-59
2023/04/27 05:17:25;;;;;;;15.70;6.55;;;4.60;99.90;;;;;;5027729;28;20037;-57
2023/04/27 05:19:51;;;;;;;23.60;7.22;;;4.60;99.90;;;;;;5026370;28;20434;-58
2023/04/27 05:22:16;;;;;;;20.83;7.00;;;4.80;99.90;;;;;;5025987;28;20057;-58
2023/04/27 05:24:42;;;;;;;14.10;6.78;;;4.80;99.90;;;;;;5027204;28;20409;-59
2023/04/27 05:27:07;;;;;;;17.75;6.47;;;4.90;99.90;;;;;;5027679;28;20048;-59
2023/04/27 05:29:33;;;;;;;18.63;7.05;;;4.90;99.90;;;;;;5030693;28;20022;-57
2023/04/27 05:31:58;;;;;;;26.38;7.70;;;5.00;99.90;;;;;;5025637;28;20076;-57
2023/04/27 05:34:24;;;;;;;18.98;6.57;;;5.10;99.90;;;;;;5027207;28;20053;-58
2023/04/27 05:36:50;;;;;;;14.90;6.75;;;5.20;99.90;;;;;;5027934;28;20072;-57
2023/04/27 05:39:15;;;;;;;20.50;7.15;;;5.30;99.90;;;;;;5024833;28;20024;-58
2023/04/27 05:41:41;;;;;;;15.70;7.03;;;5.40;99.90;;;;;;5017430;28;20029;-58
2023/04/27 05:44:06;;;;;;;25.17;7.78;;;5.50;99.90;;;;;;5017149;28;20454;-57
2023/04/27 05:46:32;;;;;;;18.10;7.18;;;5.60;99.90;;;;;;5017382;28;20088;-59
2023/04/27 05:48:58;;;;;;;21.52;7.75;;;5.70;99.90;;;;;;5021286;28;20033;-61
2023/04/27 05:51:24;;;;;;;17.02;6.70;;;5.80;99.90;;;;;;5021434;28;20088;-61
2023/04/27 05:53:52;;;;;;;14.85;6.60;;;5.90;99.90;;;;;;5021232;28;20021;-59
2023/04/27 05:56:18;;;;;;;18.83;6.50;;;6.00;99.90;;;;;;5025012;28;20156;-60
2023/04/27 05:58:43;;;;;;;21.15;7.93;;;6.00;99.90;;;;;;5027948;28;20447;-60
2023/04/27 06:01:09;;;;;;;23.33;7.78;;;6.10;99.90;;;;;;5022668;28;20105;-56
2023/04/27 06:03:35;;;;;;;19.92;7.03;;;6.20;99.90;;;;;;5022451;28;20028;-60
2023/04/27 06:06:01;;;;;;;16.73;6.75;;;6.20;99.90;;;;;;5019069;28;20025;-60
2023/04/27 06:08:27;;;;;;;24.73;7.63;;;6.30;99.90;;;;;;5022626;28;20057;-58
2023/04/27 06:10:53;;;;;;;16.15;6.72;;;6.40;99.90;;;;;;5025090;28;20072;-59
2023/04/27 06:13:19;;;;;;;23.23;7.53;;;6.40;99.90;;;;;;5023870;28;20034;-59
2023/04/27 06:15:45;;;;;;;24.58;7.90;;;6.50;99.90;;;;;;5030133;28;20117;-60
2023/04/27 06:18:11;;;;;;;20.95;8.90;;;6.60;99.90;;;;;;5026408;28;20117;-59
2023/04/27 06:20:37;;;;;;;18.98;7.03;;;6.70;99.90;;;;;;5028210;28;20040;-57
2023/04/27 06:23:02;;;;;;;26.55;7.85;;;6.80;99.90;;;;;;5026529;28;20037;-55
2023/04/27 06:25:28;;;;;;;20.45;6.45;;;6.80;99.90;;;;;;5026432;28;20031;-59
2023/04/27 06:27:55;;;;;;;20.33;7.88;;;6.90;99.90;;;;;;5029566;28;20112;-58
2023/04/27 06:30:21;;;;;;;14.73;7.20;;;6.90;99.90;;;;;;5028261;28;20026;-60
2023/04/27 06:32:47;;;;;;;27.08;8.20;;;7.00;99.90;;;;;;5026979;28;20906;-57
2023/04/27 06:35:12;;;;;;;25.40;7.97;;;7.10;99.90;;;;;;5028916;28;20033;-57
2023/04/27 06:37:38;;;;;;;24.08;7.28;;;7.10;99.90;;;;;;5026674;28;20119;-61
2023/04/27 06:40:04;;;;;;;22.10;9.40;;;7.20;99.90;;;;;;5027007;28;20040;-60
2023/04/27 06:42:30;;;;;;;22.27;8.73;;;7.20;99.90;;;;;;5025632;28;20234;-58
2023/04/27 06:44:55;;;;;;;14.18;6.80;;;7.20;99.90;;;;;;5025867;28;20037;-58
2023/04/27 06:47:21;;;;;;;15.38;7.95;;;7.30;99.90;;;;;;5027999;28;20033;-60
2023/04/27 06:49:47;;;;;;;21.58;8.40;;;7.30;99.90;;;;;;5024214;28;20382;-58
2023/04/27 06:52:13;;;;;;;18.17;8.15;;;7.40;99.90;;;;;;5029430;28;20072;-57
2023/04/27 06:54:38;;;;;;;17.88;7.75;;;7.50;99.90;;;;;;5028776;28;20116;-61
2023/04/27 06:57:05;;;;;;;22.38;7.65;;;7.50;99.90;;;;;;5030617;28;20026;-60
2023/04/27 06:59:30;;;;;;;18.15;7.43;;;7.60;99.90;;;;;;5020466;28;20397;-60
2023/04/27 07:01:56;;;;;;;20.88;7.55;;;7.70;99.90;;;;;;5025985;28;20037;-59
2023/04/27 07:04:22;;;;;;;18.48;7.68;;;7.70;99.90;;;;;;5028947;28;20045;-60
2023/04/27 07:06:48;;;;;;;18.85;7.65;;;7.80;99.90;;;;;;5025712;28;20025;-57
2023/04/27 07:09:14;;;;;;;21.42;7.88;;;7.90;99.90;;;;;;5029141;28;20032;-59
2023/04/27 07:11:39;;;;;;;16.77;8.38;;;7.90;99.90;;;;;;5028771;28;20026;-60
2023/04/27 07:14:05;;;;;;;23.98;8.93;;;8.00;99.90;;;;;;5023694;28;20100;-58
2023/04/27 07:16:31;;;;;;;20.00;7.25;;;8.10;99.90;;;;;;5028211;28;20024;-59
2023/04/27 07:18:57;;;;;;;17.35;7.72;;;8.20;99.90;;;;;;5025770;28;20034;-58
2023/04/27 07:21:22;;;;;;;18.67;7.07;;;8.30;99.90;;;;;;5026787;28;20041;-57
2023/04/27 07:23:48;;;;;;;15.55;7.05;;;8.30;99.90;;;;;;5029374;28;20030;-58
2023/04/27 07:26:13;;;;;;;18.02;8.13;;;8.40;99.90;;;;;;5029545;28;20080;-58
2023/04/27 07:28:39;;;;;;;17.75;7.55;;;8.50;99.90;;;;;;5023648;28;20107;-56
2023/04/27 07:31:05;;;;;;;24.92;7.32;;;8.60;99.90;;;;;;5023855;28;20033;-60
2023/04/27 07:33:34;;;;;;;19.13;7.78;;;8.70;99.90;;;;;;5030224;28;20025;-60
2023/04/27 07:36:01;;;;;;;19.17;7.28;;;8.70;99.90;;;;;;5031267;28;20079;-62
2023/04/27 07:38:28;;;;;;;18.63;7.82;;;8.80;99.90;;;;;;5025373;28;20030;-60
2023/04/27 07:40:54;;;;;;;18.48;7.97;;;8.90;99.90;;;;;;5028500;28;20079;-58
2023/04/27 07:43:21;;;;;;;13.57;7.03;;;9.00;99.90;;;;;;5025554;28;20017;-61
2023/04/27 07:45:48;;;;;;;23.25;7.43;;;9.00;99.90;;;;;;5028165;28;20061;-59
2023/04/27 07:48:13;;;;;;;22.10;8.75;;;9.10;99.90;;;;;;5029149;28;20032;-61
2023/04/27 07:50:39;;;;;;;16.15;7.68;;;9.20;99.90;;;;;;5028052;28;20112;-59
2023/04/27 07:53:05;;;;;;;19.95;7.55;;;9.30;99.90;;;;;;5028770;28;20017;-60
2023/04/27 07:55:30;;;;;;;17.25;7.57;;;9.30;99.90;;;;;;5031571;28;20508;-59
2023/04/27 07:57:56;;;;;;;18.80;7.05;;;9.40;99.90;;;;;;5027444;28;20049;-61
2023/04/27 08:00:24;;;;;;;16.10;7.70;;;9.60;99.90;;;;;;5025729;28;20560;-59
2023/04/27 08:02:51;;;;;;;21.75;8.35;;;9.60;99.90;;;;;;5029646;28;20025;-59
2023/04/27 08:05:16;;;;;;;27.08;8.57;;;9.70;99.90;;;;;;5028890;28;20067;-58
2023/04/27 08:07:42;;;;;;;14.40;7.30;;;9.70;99.90;;;;;;5028546;28;20025;-57
2023/04/27 08:10:08;;;;;;;19.20;8.25;;;9.80;99.90;;;;;;5030412;28;20064;-58
2023/04/27 08:12:33;;;;;;;14.52;6.90;;;9.90;99.90;;;;;;5030107;28;20442;-60
2023/04/27 08:14:59;;;;;;;20.02;7.88;;;10.00;99.90;;;;;;5028998;28;20031;-59
2023/04/27 08:17:25;;;;;;;17.10;6.55;;;10.00;99.90;;;;;;5028033;28;20026;-58
2023/04/27 08:19:51;;;;;;;19.85;7.22;;;10.10;99.90;;;;;;5029411;28;20508;-60
2023/04/27 08:22:16;;;;;;;17.77;8.13;;;10.20;99.90;;;;;;5029120;28;20030;-59
2023/04/27 08:24:42;;;;;;;16.58;7.93;;;10.20;99.90;;;;;;5028218;28;20032;-59
2023/04/27 08:27:08;;;;;;;17.73;7.70;;;10.30;99.90;;;;;;5029708;28;20026;-57
2023/04/27 08:29:34;;;;;;;27.52;7.95;;;10.40;99.90;;;;;;5027523;28;20051;-58
2023/04/27 08:32:01;;;;;;;23.67;8.23;;;10.40;99.90;;;;;;5028806;28;20515;-60
2023/04/27 08:34:27;;;;;;;20.27;7.55;;;10.50;99.90;;;;;;5029564;28;20017;-59
2023/04/27 08:36:53;;;;;;;24.67;8.38;;;10.60;99.90;;;;;;5029000;28;20061;-61
2023/04/27 08:39:19;;;;;;;18.55;8.57;;;10.60;99.90;;;;;;5028472;28;20061;-61
2023/04/27 08:41:45;;;;;;;20.88;8.98;;;10.70;99.90;;;;;;5027115;28;20040;-60
2023/04/27 08:44:10;;;;;;;14.75;7.05;;;10.80;99.90;;;;;;5029315;28;20655;-59
2023/04/27 08:46:37;;;;;;;15.65;8.18;;;10.80;99.90;;;;;;5025209;28;20041;-59
2023/04/27 08:49:02;;;;;;;14.60;7.20;;;10.90;99.90;;;;;;5029422;28;20030;-57
2023/04/27 08:51:28;;;;;;;18.88;7.22;;;10.90;99.90;;;;;;5029029;28;20037;-59
2023/04/27 08:53:56;;;;;;;15.95;8.05;;;10.90;99.90;;;;;;5028213;28;20029;-60
2023/04/27 08:56:26;;;;;;;17.98;7.85;;;11.10;99.90;;;;;;5028670;28;20407;-59
2023/04/27 08:58:53;;;;;;;19.85;7.82;;;11.10;99.90;;;;;;5029166;28;20500;-59
2023/04/27 09:01:19;;;;;;;16.33;7.88;;;11.20;99.90;;;;;;5026800;28;20040;-58
2023/04/27 09:03:46;;;;;;;19.38;8.48;;;11.30;99.90;;;;;;5027290;28;20029;-57
2023/04/27 09:06:12;;;;;;;17.80;8.60;;;11.40;99.90;;;;;;5026562;28;20236;-57
2023/04/27 09:08:45;;;;;;;19.77;7.07;;;11.40;99.90;;;;;;5029114;28;20021;-58
2023/04/27 09:11:13;;;;;;;29.05;8.40;;;11.50;99.90;;;;;;5025853;28;20485;-59
2023/04/27 09:13:43;;;;;;;14.45;7.10;;;11.60;99.90;;;;;;5028303;28;20091;-55
2023/04/27 09:16:12;;;;;;;15.13;7.53;;;11.60;99.90;;;;;;5023521;28;20092;-58
2023/04/27 09:18:41;;;;;;;23.10;8.43;;;11.70;99.90;;;;;;5028984;28;20079;-57
2023/04/27 09:21:06;;;;;;;20.48;8.15;;;11.80;99.90;;;;;;5026553;28;20034;-58
2023/04/27 09:23:40;;;;;;;18.88;8.48;;;11.90;99.90;;;;;;5028725;28;20511;-59
2023/04/27 09:26:07;;;;;;;15.77;7.57;;;12.00;99.90;;;;;;5029343;28;20030;-58
2023/04/27 09:28:33;;;;;;;15.18;8.15;;;12.10;99.90;;;;;;5028345;28;20049;-59
2023/04/27 09:31:01;;;;;;;21.15;8.93;;;12.20;99.90;;;;;;5026436;28;20059;-59
2023/04/27 09:33:30;;;;;;;18.45;8.80;;;12.40;99.90;;;;;;5029618;28;20014;-58
2023/04/27 09:36:01;;;;;;;19.65;9.07;;;12.50;99.90;;;;;;5029926;28;20112;-60
2023/04/27 09:38:27;;;;;;;17.65;8.18;;;12.60;99.90;;;;;;5028801;28;20037;-60
2023/04/27 09:40:54;;;;;;;23.50;8.55;;;12.60;99.90;;;;;;5032487;28;20037;-57
2023/04/27 09:43:20;;;;;;;17.13;8.52;;;12.90;99.90;;;;;;5032960;28;20060;-58
2023/04/27 09:45:47;;;;;;;15.40;7.65;;;13.00;99.90;;;;;;5030846;28;20036;-59
2023/04/27 09:48:13;;;;;;;19.73;9.00;;;13.10;99.90;;;;;;5031045;28;20029;-59
2023/04/27 09:50:40;;;;;;;21.42;8.00;;;13.00;99.90;;;;;;5032098;28;20489;-59
2023/04/27 09:53:10;;;;;;;21.90;9.55;;;13.00;99.90;;;;;;5031574;28;20022;-58
2023/04/27 09:55:44;;;;;;;18.77;8.68;;;12.90;99.90;;;;;;5030980;28;20026;-59
2023/04/27 09:58:34;;;;;;;21.70;7.13;;;12.90;99.90;;;;;;5028793;28;20531;-58
2023/04/27 10:01:37;;;;;;;16.83;8.35;;;13.10;99.90;;;;;;5031127;28;20033;-60
2023/04/27 10:04:11;;;;;;;18.05;7.82;;;13.40;99.90;;;;;;5029999;28;20045;-59
2023/04/27 10:06:50;;;;;;;13.57;7.78;;;13.80;99.90;;;;;;5031554;28;20075;-61
2023/04/27 10:09:22;;;;;;;24.33;8.70;;;13.90;99.90;;;;;;5029459;28;20025;-59
2023/04/27 10:11:48;;;;;;;17.33;8.40;;;13.90;99.90;;;;;;5030298;28;20034;-60
2023/04/27 10:14:22;;;;;;;17.10;7.93;;;13.80;99.90;;;;;;5030187;28;20037;-59
2023/04/27 10:16:52;;;;;;;24.45;9.38;;;13.80;99.90;;;;;;5030325;28;20447;-61
2023/04/27 10:19:18;;;;;;;24.73;9.50;;;13.90;99.90;;;;;;5031473;28;20029;-60
2023/04/27 10:22:04;;;;;;;27.92;9.90;;;13.90;99.90;;;;;;5031575;28;20056;-59
2023/04/27 10:24:41;;;;;;;19.70;7.78;;;13.60;99.90;;;;;;5030889;28;20134;-59
2023/04/27 10:27:09;;;;;;;20.27;8.30;;;13.90;99.90;;;;;;5030329;28;20029;-58
2023/04/27 10:29:45;;;;;;;19.30;8.80;;;14.10;99.90;;;;;;5023108;28;20105;-61
2023/04/27 10:32:24;;;;;;;22.27;9.73;;;14.10;99.90;;;;;;5027135;28;20033;-61
2023/04/27 10:34:52;;;;;;;18.27;9.10;;;14.50;99.90;;;;;;5025825;28;20022;-60
2023/04/27 10:37:24;;;;;;;21.98;7.40;;;14.40;99.90;;;;;;5031050;28;20017;-59
2023/04/27 10:39:49;;;;;;;18.80;8.85;;;14.50;99.90;;;;;;5029084;28;20048;-59
2023/04/27 10:42:27;;;;;;;19.73;7.88;;;14.90;99.30;;;;;;5031642;28;20497;-58
2023/04/27 10:44:56;;;;;;;20.65;8.32;;;14.70;99.40;;;;;;5017049;28;20025;-58
2023/04/27 10:47:23;;;;;;;21.42;10.18;;;14.90;99.90;;;;;;5024940;28;20036;-58
2023/04/27 10:49:52;;;;;;;22.77;8.73;;;14.90;98.50;;;;;;5031247;28;20025;-59
2023/04/27 10:52:18;;;;;;;16.20;8.88;;;15.10;98.30;;;;;;5028051;28;20022;-59
2023/04/27 10:54:46;;;;;;;20.50;9.93;;;14.80;99.90;;;;;;5029866;28;20030;-59
2023/04/27 10:57:12;;;;;;;21.05;9.20;;;14.90;98.00;;;;;;5026621;28;20033;-60
2023/04/27 10:59:52;;;;;;;20.25;9.18;;;15.10;99.90;;;;;;5023926;28;20026;-60
2023/04/27 11:02:25;;;;;;;17.05;8.55;;;15.50;99.90;;;;;;5028018;28;20022;-59
2023/04/27 11:04:51;;;;;;;13.23;8.15;;;15.50;97.70;;;;;;5026428;28;20527;-58
2023/04/27 11:07:25;;;;;;;17.38;8.02;;;15.60;99.90;;;;;;5029636;28;20022;-59
2023/04/27 11:09:51;;;;;;;22.63;9.40;;;16.00;99.20;;;;;;5027965;28;20022;-60
2023/04/27 11:12:17;;;;;;;24.92;9.57;;;16.10;98.00;;;;;;5025744;28;20033;-61
2023/04/27 11:14:43;;;;;;;22.00;9.55;;;15.80;96.30;;;;;;5023974;28;20031;-60
2023/04/27 11:17:08;;;;;;;22.20;8.70;;;15.50;95.50;;;;;;5028070;28;20091;-59
2023/04/27 11:19:47;;;;;;;15.80;8.05;;;15.60;98.00;;;;;;5028812;28;20044;-60
2023/04/27 11:22:15;;;;;;;20.25;8.77;;;15.90;97.80;;;;;;5027641;28;20021;-60
2023/04/27 11:24:51;;;;;;;19.42;8.07;;;16.10;97.80;;;;;;5032695;28;20467;-60
2023/04/27 11:27:17;;;;;;;14.23;8.25;;;16.50;94.80;;;;;;5028813;28;20014;-59
2023/04/27 11:29:43;;;;;;;15.90;8.63;;;16.00;94.90;;;;;;5023769;28;20021;-59
2023/04/27 11:32:20;;;;;;;22.48;9.80;;;15.80;95.00;;;;;;5025565;28;20515;-60
2023/04/27 11:34:52;;;;;;;17.77;8.98;;;15.70;94.20;;;;;;5030533;28;20024;-57
2023/04/27 11:37:23;;;;;;;17.40;8.18;;;15.20;94.40;;;;;;5023269;28;20037;-60
2023/04/27 11:39:49;;;;;;;23.27;8.73;;;15.60;97.20;;;;;;5023847;28;20025;-59
2023/04/27 11:42:22;;;;;;;14.77;7.63;;;15.90;94.00;;;;;;5020521;28;20044;-59
2023/04/27 11:44:55;;;;;;;23.42;8.35;;;16.10;94.40;;;;;;5019367;28;20057;-59
2023/04/27 11:47:22;;;;;;;16.80;8.60;;;16.20;95.10;;;;;;5032366;28;20025;-59
2023/04/27 11:49:49;;;;;;;26.05;8.15;;;16.30;93.30;;;;;;5022838;28;20484;-56
2023/04/27 11:52:15;;;;;;;20.48;8.38;;;15.90;93.80;;;;;;5030057;28;20672;-58
2023/04/27 11:54:55;;;;;;;17.05;9.50;;;15.80;93.30;;;;;;5026246;28;20042;-59
2023/04/27 11:57:28;;;;;;;16.65;8.13;;;15.60;93.30;;;;;;5027384;28;20025;-60
2023/04/27 11:59:55;;;;;;;20.25;8.07;;;15.90;93.80;;;;;;5022896;28;20044;-59
2023/04/27 12:02:21;;;;;;;21.13;7.95;;;16.30;94.90;;;;;;5027181;28;20558;-59
2023/04/27 12:04:47;;;;;;;18.60;9.02;;;16.30;94.60;;;;;;5024599;28;20033;-60
2023/04/27 12:07:13;;;;;;;19.15;8.63;;;16.10;92.20;;;;;;5028662;28;20033;-59
2023/04/27 12:09:39;;;;;;;20.58;8.95;;;15.70;92.20;;;;;;5027113;28;20037;-59
2023/04/27 12:12:05;;;;;;;22.20;8.93;;;15.50;92.90;;;;;;5026687;28;20037;-59
2023/04/27 12:14:31;;;;;;;13.63;8.23;;;15.60;93.70;;;;;;5029590;28;20035;-58
2023/04/27 12:16:56;;;;;;;17.15;8.60;;;15.60;92.30;;;;;;5017746;28;20018;-61
2023/04/27 12:19:24;;;;;;;16.35;7.78;;;15.80;93.20;;;;;;5031387;28;20021;-60
2023/04/27 12:21:50;;;;;;;22.27;7.47;;;16.20;93.30;;;;;;5024867;28;20503;-58
2023/04/27 12:24:15;;;;;;;18.38;8.60;;;16.40;92.10;;;;;;5026624;28;20021;-59
2023/04/27 12:26:41;;;;;;;18.30;9.00;;;16.50;92.30;;;;;;5026805;28;20087;-59
2023/04/27 12:29:06;;;;;;;18.63;8.55;;;15.80;91.70;;;;;;5027201;28;20088;-59
2023/04/27 12:31:32;;;;;;;22.15;8.63;;;15.80;92.70;;;;;;5025220;28;20030;-60
2023/04/27 12:33:58;;;;;;;17.77;8.80;;;15.80;95.70;;;;;;5027631;28;20789;-57
2023/04/27 12:36:25;;;;;;;14.15;7.22;;;16.00;97.40;;;;;;5024427;28;20385;-58
2023/04/27 12:38:50;;;;;;;27.27;7.75;;;16.60;93.80;;;;;;5021416;28;20041;-56
2023/04/27 12:41:16;;;;;;;18.38;7.60;;;17.20;98.50;;;;;;5027202;28;20044;-58